Terminal Aerodrome Forecast
Issued by NWS

Home | Current Version | Previous Version | Text Only | Print | Product List | Glossary On
Versions: 1 2 3 4 5 6 7 8 9 10 11 12 13 14 15 16 17 18 19 20 21 22 23 24 25 26
000
FTUS46 KMTR 281100
TAFSFO
TAF
KSFO 281120Z 2812/2918 29008KT P6SM SCT008
      TEMPO 2812/2816 BKN008
     FM281700 28005KT P6SM FEW010
     FM282000 29018KT P6SM SKC
     FM290300 29010KT P6SM SKC
     FM290900 29007KT P6SM BKN008
     FM291700 29005KT P6SM SCT010=

USA.gov is the U.S. government's official web portal to all federal, state and local government web resources and services.